createdAt,value
2022-09-03T00:00:18.929Z,2.33
2022-09-03T00:03:03.889Z,2.70
2022-09-03T00:05:55.214Z,2.17
2022-09-03T00:08:36.634Z,2.47
2022-09-03T00:11:19.647Z,2.60
2022-09-03T00:13:53.502Z,2.33
2022-09-03T00:16:22.651Z,2.28
2022-09-03T00:19:03.331Z,2.20
2022-09-03T00:21:48.840Z,2.33
2022-09-03T00:24:18.297Z,2.17
2022-09-03T00:26:51.868Z,2.60
2022-09-03T00:29:24.308Z,2.30
2022-09-03T00:31:54.921Z,2.70
2022-09-03T00:34:41.437Z,2.30
2022-09-03T00:37:14.418Z,2.83
2022-09-03T00:39:42.916Z,2.50
2022-09-03T00:42:31.917Z,2.70
2022-09-03T00:45:08.964Z,2.85
2022-09-03T00:47:38.629Z,2.20
2022-09-03T00:50:22.380Z,2.20
2022-09-03T00:53:10.210Z,2.00
2022-09-03T00:56:00.886Z,2.30
2022-09-03T00:58:45.646Z,1.98
2022-09-03T01:01:26.360Z,2.15
2022-09-03T01:04:21.661Z,2.20
2022-09-03T01:07:16.188Z,2.20
2022-09-03T01:10:05.956Z,2.38
2022-09-03T01:12:44.007Z,2.70
2022-09-03T01:15:26.646Z,2.40
2022-09-03T01:18:03.396Z,2.58
2022-09-03T01:21:04.607Z,2.53
2022-09-03T01:24:02.809Z,2.42
2022-09-03T01:26:44.089Z,2.58
2022-09-03T01:29:39.991Z,2.65
2022-09-03T01:32:16.848Z,2.58
2022-09-03T01:34:58.022Z,2.53
2022-09-03T01:37:40.636Z,2.47
2022-09-03T01:40:52.488Z,2.50
2022-09-03T01:43:45.385Z,2.70
2022-09-03T01:46:30.372Z,2.42
2022-09-03T01:49:11.921Z,2.80
2022-09-03T01:51:38.579Z,2.50
2022-09-03T01:54:26.854Z,3.03
2022-09-03T01:57:36.610Z,2.50
2022-09-03T02:00:13.503Z,2.40
2022-09-03T02:02:48.017Z,2.72
2022-09-03T02:05:19.470Z,2.33
2022-09-03T02:10:19.504Z,2.22
2022-09-03T02:12:51.530Z,2.85
2022-09-03T02:15:21.505Z,2.90
2022-09-03T02:17:54.626Z,2.40
2022-09-03T02:20:23.409Z,2.40
2022-09-03T02:22:50.962Z,2.75
2022-09-03T02:25:18.043Z,2.35
2022-09-03T02:27:46.137Z,2.33
2022-09-03T02:30:12.863Z,2.72
2022-09-03T02:32:39.866Z,2.40
2022-09-03T02:35:07.078Z,2.20
2022-09-03T02:37:34.241Z,2.25
2022-09-03T02:40:01.052Z,2.60
2022-09-03T02:42:27.884Z,2.30
2022-09-03T02:45:00.777Z,2.60
2022-09-03T02:47:32.094Z,2.67
2022-09-03T02:52:25.162Z,3.45
2022-09-03T02:54:51.869Z,2.92
2022-09-03T02:57:20.104Z,3.33
2022-09-03T02:59:54.629Z,3.15
2022-09-03T03:02:21.285Z,2.60
2022-09-03T03:04:47.953Z,2.95
2022-09-03T03:07:14.563Z,2.88
2022-09-03T03:09:41.152Z,2.65
2022-09-03T03:12:10.336Z,3.35
2022-09-03T03:14:36.952Z,3.17
2022-09-03T03:17:03.883Z,3.45
2022-09-03T03:19:30.499Z,3.58
2022-09-03T03:21:57.105Z,3.10
2022-09-03T03:24:23.705Z,3.00
2022-09-03T03:26:50.808Z,3.20
2022-09-03T03:29:17.951Z,3.03
2022-09-03T03:31:44.865Z,3.90
2022-09-03T03:34:11.499Z,2.95
2022-09-03T03:36:38.190Z,3.53
2022-09-03T03:39:04.911Z,3.55
2022-09-03T03:41:34.332Z,3.70
2022-09-03T03:44:03.638Z,3.00
2022-09-03T03:46:33.295Z,3.30
2022-09-03T03:49:00.404Z,3.47
2022-09-03T03:51:27.396Z,3.35
2022-09-03T03:53:56.724Z,3.08
2022-09-03T03:56:24.821Z,3.20
2022-09-03T03:58:52.159Z,2.88
2022-09-03T04:01:24.911Z,3.20
2022-09-03T04:03:52.926Z,3.08
2022-09-03T04:08:50.303Z,3.03
2022-09-03T04:11:20.266Z,3.13
2022-09-03T04:13:47.994Z,3.17
2022-09-03T04:16:20.686Z,2.75
2022-09-03T04:18:49.365Z,3.42
2022-09-03T04:21:22.147Z,3.08
2022-09-03T04:23:50.319Z,3.10
2022-09-03T04:26:22.068Z,3.00
2022-09-03T04:28:49.062Z,2.55
2022-09-03T04:31:18.726Z,3.53
2022-09-03T04:33:45.689Z,2.90
2022-09-03T04:36:17.775Z,3.15
2022-09-03T04:38:46.803Z,3.00
2022-09-03T04:41:23.019Z,3.30
2022-09-03T04:43:51.788Z,3.65
2022-09-03T04:46:20.232Z,3.25
2022-09-03T04:48:51.858Z,2.83
2022-09-03T04:51:21.369Z,3.40
2022-09-03T04:53:53.341Z,3.15
2022-09-03T04:56:23.710Z,3.47
2022-09-03T04:58:57.765Z,3.73
2022-09-03T05:01:26.627Z,3.40
2022-09-03T05:03:55.548Z,2.90
2022-09-03T05:06:22.140Z,4.75
2022-09-03T05:08:50.370Z,3.55
2022-09-03T05:11:18.012Z,3.30
2022-09-03T05:13:49.062Z,2.95
2022-09-03T05:16:16.430Z,3.45
2022-09-03T05:18:43.149Z,3.05
2022-09-03T05:21:14.407Z,2.90
2022-09-03T05:26:18.460Z,3.72
2022-09-03T05:28:45.872Z,3.45
2022-09-03T05:31:15.260Z,3.03
2022-09-03T05:33:47.130Z,3.60
2022-09-03T05:36:19.103Z,3.10
2022-09-03T05:38:47.662Z,3.20
2022-09-03T05:41:17.372Z,3.33
2022-09-03T05:43:51.156Z,3.30
2022-09-03T05:46:18.347Z,3.53
2022-09-03T05:48:45.228Z,3.33
2022-09-03T05:51:16.371Z,3.08
2022-09-03T05:53:46.057Z,3.47
2022-09-03T05:56:18.825Z,3.50
2022-09-03T05:58:50.890Z,3.25
2022-09-03T06:01:20.202Z,3.75
2022-09-03T06:03:53.225Z,3.70
2022-09-03T06:06:24.811Z,4.03
2022-09-03T06:08:55.346Z,3.53
2022-09-03T06:11:28.706Z,4.05
2022-09-03T06:13:56.744Z,3.70
2022-09-03T06:16:30.644Z,4.38
2022-09-03T06:19:02.145Z,4.15
2022-09-03T06:21:29.347Z,3.67
2022-09-03T06:24:00.045Z,4.80
2022-09-03T06:26:28.756Z,5.20
2022-09-03T06:28:57.004Z,4.78
2022-09-03T06:31:24.549Z,4.80
2022-09-03T06:33:53.078Z,4.65
2022-09-03T06:36:20.567Z,4.60
2022-09-03T06:38:47.599Z,4.95
2022-09-03T06:41:21.385Z,4.88
2022-09-03T06:43:49.254Z,4.57
2022-09-03T06:46:18.880Z,4.53
2022-09-03T06:48:46.412Z,4.82
2022-09-03T06:51:18.786Z,5.47
2022-09-03T06:53:48.012Z,5.18
2022-09-03T06:56:17.346Z,4.68
2022-09-03T06:58:46.519Z,4.47
2022-09-03T07:01:19.291Z,4.38
2022-09-03T07:03:48.180Z,4.80
2022-09-03T07:06:21.784Z,3.97
2022-09-03T07:08:48.602Z,4.93
2022-09-03T07:11:22.051Z,4.43
2022-09-03T07:13:51.654Z,4.38
2022-09-03T07:16:20.819Z,4.68
2022-09-03T07:18:48.703Z,4.80
2022-09-03T07:21:27.336Z,4.60
2022-09-03T07:23:55.750Z,4.50
2022-09-03T07:26:36.974Z,5.05
2022-09-03T07:29:05.014Z,4.70
2022-09-03T07:31:34.185Z,5.00
2022-09-03T07:34:06.175Z,4.95
2022-09-03T07:36:43.014Z,5.25
2022-09-03T07:39:14.167Z,5.30
2022-09-03T07:41:44.131Z,5.00
2022-09-03T07:44:11.423Z,4.97
2022-09-03T07:46:38.902Z,5.10
2022-09-03T07:49:06.421Z,5.25
2022-09-03T07:51:37.365Z,5.28
2022-09-03T07:54:07.566Z,4.85
2022-09-03T07:56:35.863Z,4.30
2022-09-03T07:59:03.405Z,5.55
2022-09-03T08:01:34.206Z,4.63
2022-09-03T08:04:02.730Z,4.65
2022-09-03T08:06:31.010Z,4.35
2022-09-03T08:09:04.624Z,4.65
2022-09-03T08:11:35.250Z,4.60
2022-09-03T08:14:06.603Z,4.53
2022-09-03T08:16:53.760Z,4.80
2022-09-03T08:19:20.543Z,4.78
2022-09-03T08:21:47.382Z,4.40
2022-09-03T08:24:16.676Z,4.45
2022-09-03T08:26:49.068Z,4.50
2022-09-03T08:29:18.651Z,4.88
2022-09-03T08:31:45.555Z,4.32
2022-09-03T08:34:14.537Z,4.60
2022-09-03T08:36:44.539Z,4.57
2022-09-03T08:39:11.694Z,4.53
2022-09-03T08:41:53.596Z,4.72
2022-09-03T08:44:26.178Z,4.72
2022-09-03T08:47:17.550Z,5.45
2022-09-03T08:52:33.777Z,5.22
2022-09-03T08:55:14.823Z,4.80
2022-09-03T08:57:46.713Z,5.07
2022-09-03T09:00:13.989Z,5.10
2022-09-03T09:03:21.425Z,5.07
2022-09-03T09:05:59.071Z,5.25
2022-09-03T09:08:36.232Z,5.28
2022-09-03T09:11:14.591Z,5.07
2022-09-03T09:13:54.380Z,5.28
2022-09-03T09:16:36.557Z,5.35
2022-09-03T09:19:28.074Z,5.70
2022-09-03T09:22:02.061Z,5.90
2022-09-03T09:24:37.899Z,6.10
2022-09-03T09:27:06.470Z,5.57
2022-09-03T09:29:36.768Z,5.63
2022-09-03T09:32:07.618Z,6.03
2022-09-03T09:34:38.316Z,5.93
2022-09-03T09:37:11.296Z,5.80
2022-09-03T09:39:38.214Z,5.28
2022-09-03T09:42:11.287Z,5.43
2022-09-03T09:44:40.005Z,5.80
2022-09-03T09:47:11.905Z,5.82
2022-09-03T09:49:51.854Z,5.85
2022-09-03T09:52:18.522Z,5.30
2022-09-03T09:54:46.739Z,5.03
2022-09-03T09:57:31.168Z,5.75
2022-09-03T10:00:13.470Z,5.80
2022-09-03T10:02:51.799Z,5.15
2022-09-03T10:05:26.753Z,5.18
2022-09-03T10:08:18.732Z,6.03
2022-09-03T10:10:49.794Z,4.72
2022-09-03T10:15:55.752Z,4.63
2022-09-03T10:18:31.704Z,4.50
2022-09-03T10:21:05.095Z,4.20
2022-09-03T10:24:07.524Z,4.95
2022-09-03T10:26:36.609Z,5.05
2022-09-03T10:29:07.045Z,4.50
2022-09-03T10:32:03.699Z,4.45
2022-09-03T10:34:48.720Z,5.40
2022-09-03T10:37:19.690Z,4.25
2022-09-03T10:42:37.518Z,3.00
2022-09-03T10:45:08.103Z,4.00
2022-09-03T10:48:04.293Z,3.40
2022-09-03T10:50:48.978Z,3.58
2022-09-03T10:53:24.912Z,2.90
2022-09-03T10:55:58.904Z,2.63
2022-09-03T10:58:47.151Z,2.70
2022-09-03T11:01:35.514Z,2.72
2022-09-03T11:04:15.237Z,2.30
2022-09-03T11:07:07.566Z,2.63
2022-09-03T11:09:40.438Z,2.70
2022-09-03T11:12:17.787Z,2.10
2022-09-03T11:14:56.102Z,1.98
2022-09-03T11:17:30.150Z,2.35
2022-09-03T11:20:14.555Z,2.03
2022-09-03T11:22:44.299Z,2.42
2022-09-03T11:25:13.983Z,2.28
2022-09-03T11:27:43.331Z,2.35
2022-09-03T11:30:22.189Z,2.38
2022-09-03T11:33:07.698Z,2.83
2022-09-03T11:35:34.296Z,2.65
2022-09-03T11:38:08.591Z,3.00
2022-09-03T11:40:38.183Z,2.80
2022-09-03T11:43:15.886Z,3.13
2022-09-03T11:45:42.572Z,2.85
2022-09-03T11:48:36.381Z,2.80
2022-09-03T11:51:04.385Z,2.97
2022-09-03T11:53:35.898Z,2.85
2022-09-03T11:56:05.549Z,2.78
2022-09-03T11:58:37.886Z,3.10
2022-09-03T12:01:16.233Z,2.78
2022-09-03T12:03:52.951Z,2.67
2022-09-03T12:06:43.182Z,3.08
2022-09-03T12:09:36.094Z,3.43
2022-09-03T12:12:14.668Z,5.95
2022-09-03T12:14:44.051Z,3.20
2022-09-03T12:17:23.408Z,8.40
2022-09-03T12:19:54.539Z,3.33
2022-09-03T12:22:31.384Z,3.47
2022-09-03T12:25:13.082Z,2.95
2022-09-03T12:27:42.979Z,2.92
2022-09-03T12:30:17.803Z,2.90
2022-09-03T12:32:45.465Z,2.95
2022-09-03T12:38:09.896Z,2.85
2022-09-03T12:43:38.795Z,1.95
2022-09-03T12:46:14.649Z,1.20
2022-09-03T12:52:07.326Z,1.27
2022-09-03T12:54:42.689Z,1.00
2022-09-03T12:57:20.898Z,1.40
2022-09-03T12:59:51.455Z,1.70
2022-09-03T13:02:23.971Z,1.55
2022-09-03T13:04:52.743Z,1.20
2022-09-03T13:07:33.549Z,2.17
2022-09-03T13:10:07.876Z,1.15
2022-09-03T13:12:52.437Z,1.80
2022-09-03T13:15:24.157Z,2.00
2022-09-03T13:18:10.508Z,1.55
2022-09-03T13:20:43.291Z,2.08
2022-09-03T13:23:33.239Z,1.70
2022-09-03T13:26:24.912Z,1.70
2022-09-03T13:29:24.448Z,1.67
2022-09-03T13:31:59.960Z,2.10
2022-09-03T13:34:36.085Z,1.38
2022-09-03T13:37:28.697Z,2.00
2022-09-03T13:40:04.068Z,1.23
2022-09-03T13:42:31.281Z,1.48
2022-09-03T13:45:16.890Z,1.75
2022-09-03T13:48:07.164Z,1.40
2022-09-03T13:51:12.263Z,0.93
2022-09-03T13:54:11.717Z,1.27
2022-09-03T13:56:47.580Z,1.35
2022-09-03T13:59:45.987Z,1.63
2022-09-03T14:02:34.308Z,1.30
2022-09-03T14:05:00.948Z,1.80
2022-09-03T14:07:58.620Z,1.42
2022-09-03T14:10:57.938Z,1.30
2022-09-03T14:13:41.243Z,1.20
2022-09-03T14:16:40.074Z,1.60
2022-09-03T14:19:17.841Z,1.55
2022-09-03T14:22:24.658Z,1.25
2022-09-03T14:24:56.026Z,1.60
2022-09-03T14:27:26.604Z,1.88
2022-09-03T14:29:59.428Z,1.48
2022-09-03T14:32:42.313Z,1.70
2022-09-03T14:35:19.495Z,1.20
2022-09-03T14:38:04.839Z,1.30
2022-09-03T14:40:56.308Z,1.52
2022-09-03T14:43:47.535Z,1.38
2022-09-03T14:46:37.199Z,1.20
2022-09-03T14:49:37.404Z,1.35
2022-09-03T14:52:09.919Z,1.20
2022-09-03T14:55:13.583Z,0.95
2022-09-03T14:57:48.879Z,1.50
2022-09-03T15:00:33.418Z,1.30
2022-09-03T15:03:24.749Z,1.40
2022-09-03T15:06:12.166Z,1.60
2022-09-03T15:08:47.717Z,1.20
2022-09-03T15:11:43.410Z,1.10
2022-09-03T15:14:24.636Z,1.20
2022-09-03T15:16:56.263Z,1.35
2022-09-03T15:22:30.854Z,1.13
2022-09-03T15:25:12.419Z,1.02
2022-09-03T15:27:59.973Z,0.90
2022-09-03T15:30:36.952Z,1.00
2022-09-03T15:33:11.366Z,0.82
2022-09-03T15:36:02.838Z,1.00
2022-09-03T15:38:32.291Z,0.90
2022-09-03T15:41:08.379Z,1.00
2022-09-03T15:43:35.244Z,1.10
2022-09-03T15:46:13.782Z,1.23
2022-09-03T15:49:02.898Z,0.93
2022-09-03T15:51:54.804Z,1.10
2022-09-03T15:54:36.497Z,1.00
2022-09-03T15:57:09.918Z,0.90
2022-09-03T15:59:54.625Z,0.90
2022-09-03T16:02:33.521Z,0.90
2022-09-03T16:05:13.906Z,0.90
2022-09-03T16:08:05.391Z,0.80
2022-09-03T16:11:06.822Z,0.82
2022-09-03T16:14:01.494Z,0.70
2022-09-03T16:16:49.707Z,0.60
2022-09-03T16:19:23.494Z,0.70
2022-09-03T16:21:56.132Z,0.88
2022-09-03T16:24:38.726Z,0.90
2022-09-03T16:27:09.685Z,1.00
2022-09-03T16:29:38.430Z,0.73
2022-09-03T16:32:21.285Z,0.80
2022-09-03T16:35:11.910Z,0.60
2022-09-03T16:37:57.082Z,0.70
2022-09-03T16:40:43.805Z,0.75
2022-09-03T16:43:40.982Z,0.95
2022-09-03T16:46:17.125Z,0.80
2022-09-03T16:49:00.986Z,0.80
2022-09-03T16:51:56.828Z,0.80
2022-09-03T16:54:40.386Z,0.60
2022-09-03T16:57:21.174Z,1.00
2022-09-03T16:59:47.752Z,0.70
2022-09-03T17:02:41.212Z,1.10
2022-09-03T17:05:39.623Z,0.98
2022-09-03T17:08:24.662Z,1.23
2022-09-03T17:11:03.115Z,1.10
2022-09-03T17:13:52.532Z,1.20
2022-09-03T17:16:43.407Z,1.00
2022-09-03T17:19:25.051Z,1.23
2022-09-03T17:22:22.089Z,1.20
2022-09-03T17:25:04.042Z,0.80
2022-09-03T17:27:48.782Z,1.02
2022-09-03T17:30:25.684Z,0.75
2022-09-03T17:33:29.295Z,1.00
2022-09-03T17:36:07.500Z,0.80
2022-09-03T17:39:08.044Z,0.90
2022-09-03T17:41:53.173Z,1.13
2022-09-03T17:44:38.605Z,0.95
2022-09-03T17:47:49.100Z,1.30
2022-09-03T17:50:24.987Z,1.02
2022-09-03T17:53:00.865Z,0.90
2022-09-03T17:55:36.206Z,0.85
2022-09-03T17:58:11.667Z,1.27
2022-09-03T18:00:51.887Z,0.90
2022-09-03T18:03:44.855Z,1.00
2022-09-03T18:06:45.815Z,1.10
2022-09-03T18:09:37.617Z,1.13
2022-09-03T18:12:19.768Z,1.20
2022-09-03T18:14:59.703Z,0.98
2022-09-03T18:17:39.558Z,0.95
2022-09-03T18:20:29.702Z,1.00
2022-09-03T18:23:25.663Z,1.40
2022-09-03T18:26:20.042Z,1.27
2022-09-03T18:29:54.177Z,1.20
2022-09-03T18:32:40.048Z,1.80
2022-09-03T18:35:27.263Z,1.88
2022-09-03T18:38:12.494Z,2.08
2022-09-03T18:41:07.412Z,1.88
2022-09-03T18:44:19.910Z,2.15
2022-09-03T18:50:39.823Z,4.93
2022-09-03T18:53:36.798Z,3.88
2022-09-03T18:56:42.877Z,3.75
2022-09-03T18:59:42.129Z,3.50
2022-09-03T19:02:41.543Z,3.10
2022-09-03T19:05:36.867Z,3.00
2022-09-03T19:08:35.576Z,3.55
2022-09-03T19:11:45.774Z,3.00
2022-09-03T19:14:59.509Z,3.00
2022-09-03T19:18:03.532Z,3.53
2022-09-03T19:20:50.615Z,3.22
2022-09-03T19:23:35.905Z,3.15
2022-09-03T19:26:34.200Z,3.45
2022-09-03T19:29:26.545Z,3.92
2022-09-03T19:32:19.860Z,3.33
2022-09-03T19:35:21.652Z,3.30
2022-09-03T19:38:52.422Z,3.13
2022-09-03T19:41:50.650Z,2.88
2022-09-03T19:44:35.864Z,2.70
2022-09-03T19:47:23.013Z,2.70
2022-09-03T19:50:33.366Z,2.78
2022-09-03T19:53:30.264Z,3.05
2022-09-03T19:56:23.638Z,2.60
2022-09-03T19:59:14.944Z,2.72
2022-09-03T20:02:01.181Z,2.88
2022-09-03T20:05:03.128Z,2.47
2022-09-03T20:07:48.806Z,2.72
2022-09-03T20:10:23.786Z,2.85
2022-09-03T20:13:13.352Z,2.55
2022-09-03T20:15:45.795Z,1.98
2022-09-03T20:18:23.024Z,1.90
2022-09-03T20:21:34.036Z,2.45
2022-09-03T20:24:25.009Z,2.63
2022-09-03T20:27:13.015Z,2.75
2022-09-03T20:30:01.797Z,2.67
2022-09-03T20:32:43.393Z,2.40
2022-09-03T20:35:28.150Z,2.47
2022-09-03T20:38:16.635Z,2.53
2022-09-03T20:41:27.885Z,1.65
2022-09-03T20:44:06.412Z,1.98
2022-09-03T20:46:42.665Z,1.60
2022-09-03T20:49:20.171Z,1.80
2022-09-03T20:52:06.156Z,1.70
2022-09-03T20:54:38.561Z,1.60
2022-09-03T20:57:33.885Z,1.75
2022-09-03T21:00:15.207Z,1.88
2022-09-03T21:05:34.544Z,1.73
2022-09-03T21:08:01.068Z,1.38
2022-09-03T21:10:50.643Z,1.75
2022-09-03T21:13:52.332Z,2.20
2022-09-03T21:16:40.307Z,1.75
2022-09-03T21:19:25.469Z,1.90
2022-09-03T21:22:10.358Z,2.47
2022-09-03T21:24:46.233Z,2.30
2022-09-03T21:27:16.815Z,2.30
2022-09-03T21:29:53.233Z,2.25
2022-09-03T21:32:45.705Z,2.05
2022-09-03T21:35:32.944Z,1.88
2022-09-03T21:38:06.530Z,2.00
2022-09-03T21:40:36.462Z,2.30
2022-09-03T21:43:20.629Z,2.78
2022-09-03T21:45:57.088Z,2.10
2022-09-03T21:48:36.241Z,2.15
2022-09-03T21:51:27.543Z,2.30
2022-09-03T21:54:04.979Z,2.85
2022-09-03T21:56:43.676Z,2.90
2022-09-03T21:59:32.785Z,3.25
2022-09-03T22:01:59.888Z,2.60
2022-09-03T22:04:27.048Z,2.60
2022-09-03T22:07:11.938Z,3.10
2022-09-03T22:10:03.550Z,2.55
2022-09-03T22:12:37.220Z,2.92
2022-09-03T22:15:10.179Z,2.50
2022-09-03T22:17:46.949Z,2.47
2022-09-03T22:20:15.530Z,2.13
2022-09-03T22:23:01.701Z,3.00
2022-09-03T22:25:38.657Z,2.70
2022-09-03T22:28:52.383Z,2.75
2022-09-03T22:31:36.062Z,3.65
2022-09-03T22:34:08.492Z,4.22
2022-09-03T22:36:42.242Z,3.53
2022-09-03T22:39:14.581Z,4.15
2022-09-03T22:42:02.412Z,2.88
2022-09-03T22:44:51.836Z,2.45
2022-09-03T22:47:33.844Z,2.10
2022-09-03T22:50:22.410Z,2.20
2022-09-03T22:52:59.826Z,3.33
2022-09-03T22:55:26.699Z,2.28
2022-09-03T22:57:59.332Z,1.50
2022-09-03T23:00:27.551Z,1.73
2022-09-03T23:03:03.697Z,2.20
2022-09-03T23:05:36.719Z,2.13
2022-09-03T23:08:29.877Z,2.08
2022-09-03T23:10:56.917Z,2.40
2022-09-03T23:13:31.203Z,2.58
2022-09-03T23:16:22.520Z,2.13
2022-09-03T23:21:23.139Z,2.47
2022-09-03T23:23:55.598Z,2.33
2022-09-03T23:26:43.621Z,2.35
2022-09-03T23:29:27.130Z,2.65
2022-09-03T23:31:57.577Z,2.75
2022-09-03T23:34:24.942Z,3.20
2022-09-03T23:37:33.878Z,2.88
2022-09-03T23:40:27.428Z,3.38
2022-09-03T23:43:12.387Z,2.83
2022-09-03T23:46:09.483Z,2.90
2022-09-03T23:48:47.998Z,2.95
2022-09-03T23:51:51.092Z,2.90
2022-09-03T23:54:20.451Z,3.70
2022-09-03T23:56:47.662Z,3.90
2022-09-03T23:59:40.810Z,3.40
